createdAt,value
2016-12-08T00:00:00.672Z,2.8
2016-12-08T00:00:19.339Z,2.7
2016-12-08T00:00:37.968Z,2.7
2016-12-08T00:00:56.599Z,2.7
2016-12-08T00:01:15.219Z,2.7
2016-12-08T00:01:33.842Z,2.7
2016-12-08T00:01:52.492Z,2.7
2016-12-08T00:02:11.119Z,2.7
2016-12-08T00:02:29.752Z,2.7
2016-12-08T00:02:48.379Z,2.7
2016-12-08T00:03:07.001Z,2.7
2016-12-08T00:03:25.627Z,2.7
2016-12-08T00:03:44.291Z,2.7
2016-12-08T00:04:02.916Z,2.7
2016-12-08T00:04:21.545Z,2.7
2016-12-08T00:04:40.172Z,2.7
2016-12-08T00:04:58.796Z,2.6
2016-12-08T00:05:17.419Z,2.7
2016-12-08T00:05:36.057Z,2.6
2016-12-08T00:05:54.681Z,2.6
2016-12-08T00:06:13.310Z,2.7
2016-12-08T00:06:31.941Z,2.6
2016-12-08T00:06:50.564Z,2.6
2016-12-08T00:07:09.218Z,2.7
2016-12-08T00:07:27.846Z,2.7
2016-12-08T00:07:46.479Z,2.7
2016-12-08T00:08:05.104Z,2.7
2016-12-08T00:08:23.723Z,2.7
2016-12-08T00:08:42.341Z,2.7
2016-12-08T00:09:01.021Z,2.7
2016-12-08T00:09:19.654Z,2.7
2016-12-08T00:09:38.282Z,2.8
2016-12-08T00:09:56.904Z,2.8
2016-12-08T00:10:15.529Z,2.8
2016-12-08T00:10:34.155Z,2.8
2016-12-08T00:10:52.779Z,2.8
2016-12-08T00:11:11.411Z,2.8
2016-12-08T00:11:30.039Z,2.8
2016-12-08T00:11:48.663Z,2.9
2016-12-08T00:12:07.296Z,2.9
2016-12-08T00:12:25.966Z,2.9
2016-12-08T00:12:44.592Z,2.9
2016-12-08T00:13:03.215Z,2.9
2016-12-08T00:13:21.835Z,3
2016-12-08T00:13:40.467Z,3
2016-12-08T00:13:59.092Z,3
2016-12-08T00:14:17.727Z,3
2016-12-08T00:14:36.359Z,3
2016-12-08T00:14:55.031Z,3
2016-12-08T00:15:13.666Z,3
2016-12-08T00:15:32.299Z,2.9
2016-12-08T00:15:50.956Z,2.9
2016-12-08T00:16:09.581Z,2.9
2016-12-08T00:16:28.206Z,2.8
2016-12-08T00:16:46.823Z,2.8
2016-12-08T00:17:05.452Z,2.8
2016-12-08T00:17:24.080Z,2.8
2016-12-08T00:17:42.712Z,2.7
2016-12-08T00:18:01.337Z,2.7
2016-12-08T00:18:19.958Z,2.7
2016-12-08T00:18:38.577Z,2.7
2016-12-08T00:18:57.208Z,2.7
2016-12-08T00:19:15.863Z,2.8
2016-12-08T00:19:34.485Z,2.8
2016-12-08T00:19:53.108Z,2.9
2016-12-08T00:20:11.729Z,2.9
2016-12-08T00:20:30.352Z,2.9
2016-12-08T00:20:48.982Z,3
2016-12-08T00:21:07.605Z,3
2016-12-08T00:21:26.230Z,3.1
2016-12-08T00:21:44.853Z,3.1
2016-12-08T00:22:03.480Z,3.1
2016-12-08T00:22:22.104Z,3.2
2016-12-08T00:22:40.757Z,3.2
2016-12-08T00:22:59.408Z,3.2
2016-12-08T00:23:18.031Z,3.2
2016-12-08T00:23:36.659Z,3.2
2016-12-08T00:23:55.289Z,3.3
2016-12-08T00:24:13.909Z,3.3
2016-12-08T00:24:32.537Z,3.3
2016-12-08T00:24:51.165Z,3.4
2016-12-08T00:25:09.788Z,3.4
2016-12-08T00:25:28.409Z,3.5
2016-12-08T00:25:47.044Z,3.6
2016-12-08T00:26:05.689Z,3.6
2016-12-08T00:26:24.324Z,3.6
2016-12-08T00:26:42.949Z,3.6
2016-12-08T00:27:01.568Z,3.6
2016-12-08T00:27:20.193Z,3.6
2016-12-08T00:27:38.817Z,3.5
2016-12-08T00:27:57.447Z,3.5
2016-12-08T00:28:16.086Z,3.4
2016-12-08T00:28:34.710Z,3.4
2016-12-08T00:28:53.328Z,3.4
2016-12-08T00:29:11.955Z,3.3
2016-12-08T00:29:30.621Z,3.3
2016-12-08T00:29:49.251Z,3.3
2016-12-08T00:30:07.874Z,3.2
2016-12-08T00:30:26.494Z,3.2
2016-12-08T00:30:45.112Z,3.2
2016-12-08T00:31:03.736Z,3.1
2016-12-08T00:31:22.357Z,3.1
2016-12-08T00:31:40.986Z,3.2
2016-12-08T00:31:59.610Z,3.2
2016-12-08T00:32:18.234Z,3.3
2016-12-08T00:32:36.860Z,3.3
2016-12-08T00:32:55.479Z,3.3
2016-12-08T00:33:14.135Z,3.3
2016-12-08T00:33:32.765Z,3.4
2016-12-08T00:33:51.387Z,3.4
2016-12-08T00:34:10.039Z,3.5
2016-12-08T00:34:28.661Z,3.5
2016-12-08T00:34:47.287Z,3.5
2016-12-08T00:35:05.931Z,3.5
2016-12-08T00:35:24.550Z,3.5
2016-12-08T00:35:43.181Z,3.5
2016-12-08T00:36:01.813Z,3.5
2016-12-08T00:36:20.438Z,3.5
2016-12-08T00:36:39.067Z,3.5
2016-12-08T00:36:57.686Z,3.4
2016-12-08T00:37:16.306Z,3.4
2016-12-08T00:37:34.939Z,3.4
2016-12-08T00:37:53.566Z,3.3
2016-12-08T00:38:12.191Z,3.2
2016-12-08T00:38:30.850Z,3.2
2016-12-08T00:38:49.480Z,3.1
2016-12-08T00:39:08.108Z,3.1
2016-12-08T00:39:26.736Z,3
2016-12-08T00:39:45.359Z,3
2016-12-08T00:40:03.983Z,2.9
2016-12-08T00:40:22.608Z,2.9
2016-12-08T00:40:41.232Z,2.9
2016-12-08T00:40:59.853Z,2.9
2016-12-08T00:41:18.475Z,2.8
2016-12-08T00:41:37.098Z,2.8
2016-12-08T00:41:55.750Z,2.8
2016-12-08T00:42:14.370Z,2.7
2016-12-08T00:42:32.992Z,2.7
2016-12-08T00:42:51.623Z,2.7
2016-12-08T00:43:10.243Z,2.7
2016-12-08T00:43:28.868Z,2.7
2016-12-08T00:43:47.498Z,2.7
2016-12-08T00:44:06.130Z,2.7
2016-12-08T00:44:24.750Z,2.7
2016-12-08T00:44:43.396Z,2.7
2016-12-08T00:45:02.025Z,2.7
2016-12-08T00:45:20.686Z,2.6
2016-12-08T00:45:39.310Z,2.6
2016-12-08T00:45:57.932Z,2.6
2016-12-08T00:46:16.556Z,2.6
2016-12-08T00:46:35.179Z,2.6
2016-12-08T00:46:53.805Z,2.6
2016-12-08T00:47:12.429Z,2.6
2016-12-08T00:47:31.054Z,2.6
2016-12-08T00:47:49.680Z,2.6
2016-12-08T00:48:08.299Z,2.6
2016-12-08T00:48:26.924Z,2.6
2016-12-08T00:48:45.567Z,2.6
2016-12-08T00:49:04.198Z,2.6
2016-12-08T00:49:22.835Z,2.7
2016-12-08T00:49:41.452Z,2.7
2016-12-08T00:50:00.078Z,2.7
2016-12-08T00:50:18.703Z,2.7
2016-12-08T00:50:37.331Z,2.7
2016-12-08T00:50:55.959Z,2.7
2016-12-08T00:51:14.579Z,2.7
2016-12-08T00:51:33.209Z,2.7
2016-12-08T00:51:51.839Z,2.7
2016-12-08T00:52:10.478Z,2.7
2016-12-08T00:52:29.131Z,2.7
2016-12-08T00:52:47.752Z,2.7
2016-12-08T00:53:06.379Z,2.7
2016-12-08T00:53:25.006Z,2.7
2016-12-08T00:53:43.635Z,2.7
2016-12-08T00:54:02.265Z,2.8
2016-12-08T00:54:20.893Z,2.9
2016-12-08T00:54:39.537Z,2.9
2016-12-08T00:54:58.169Z,3
2016-12-08T00:55:16.793Z,3
2016-12-08T00:55:35.419Z,3.1
2016-12-08T00:55:54.072Z,3.2
2016-12-08T00:56:12.691Z,3.3
2016-12-08T00:56:31.313Z,3.3
2016-12-08T00:56:49.941Z,3.3
2016-12-08T00:57:08.567Z,3.4
2016-12-08T00:57:27.189Z,3.4
2016-12-08T00:57:45.838Z,3.4
2016-12-08T00:58:04.456Z,3.5
2016-12-08T00:58:23.085Z,3.5
2016-12-08T00:58:41.720Z,3.6
2016-12-08T00:59:00.343Z,3.6
2016-12-08T00:59:18.978Z,3.6
2016-12-08T00:59:37.607Z,3.6
2016-12-08T00:59:56.257Z,3.6
2016-12-08T01:00:14.880Z,3.7
2016-12-08T01:00:33.505Z,3.7
2016-12-08T01:00:52.129Z,3.7
2016-12-08T01:01:10.777Z,3.7
2016-12-08T01:01:29.403Z,3.6
2016-12-08T01:01:48.032Z,3.6
2016-12-08T01:02:06.663Z,3.6
2016-12-08T01:02:25.285Z,3.5
2016-12-08T01:02:43.906Z,3.5
2016-12-08T01:03:02.539Z,3.5
2016-12-08T01:03:21.166Z,3.5
2016-12-08T01:03:39.797Z,3.5
2016-12-08T01:03:58.420Z,3.5
2016-12-08T01:04:17.044Z,3.5
2016-12-08T01:04:35.702Z,3.5
2016-12-08T01:04:54.333Z,3.4
2016-12-08T01:05:12.969Z,3.4
2016-12-08T01:05:31.595Z,3.4
2016-12-08T01:05:50.221Z,3.4
2016-12-08T01:06:08.865Z,3.3
2016-12-08T01:06:27.486Z,3.3
2016-12-08T01:06:46.118Z,3.4
2016-12-08T01:07:04.740Z,3.4
2016-12-08T01:07:23.367Z,3.4
2016-12-08T01:07:41.991Z,3.4
2016-12-08T01:08:00.639Z,3.4
2016-12-08T01:08:19.267Z,3.4
2016-12-08T01:08:37.896Z,3.4
2016-12-08T01:08:56.526Z,3.4
2016-12-08T01:09:15.142Z,3.4
2016-12-08T01:09:33.760Z,3.4
2016-12-08T01:09:52.387Z,3.4
2016-12-08T01:10:11.018Z,3.4
2016-12-08T01:10:29.654Z,3.4
2016-12-08T01:10:48.275Z,3.4
2016-12-08T01:11:06.900Z,3.4
2016-12-08T01:11:25.551Z,3.3
2016-12-08T01:11:44.190Z,3.3
2016-12-08T01:12:02.824Z,3.3
2016-12-08T01:12:21.451Z,3.2
2016-12-08T01:12:40.077Z,3.2
2016-12-08T01:12:58.698Z,3.2
2016-12-08T01:13:17.320Z,3.2
2016-12-08T01:13:35.945Z,3.1
2016-12-08T01:13:54.572Z,3.1
2016-12-08T01:14:13.191Z,3.1
2016-12-08T01:14:31.820Z,3
2016-12-08T01:14:50.450Z,3
2016-12-08T01:15:09.114Z,2.9
2016-12-08T01:15:27.737Z,2.9
2016-12-08T01:15:46.366Z,2.8
2016-12-08T01:16:04.987Z,2.8
2016-12-08T01:16:23.609Z,2.8
2016-12-08T01:16:42.241Z,2.7
2016-12-08T01:17:00.872Z,2.7
2016-12-08T01:17:19.497Z,2.7
2016-12-08T01:17:38.120Z,2.6
2016-12-08T01:17:56.742Z,2.6
2016-12-08T01:18:15.376Z,2.5
2016-12-08T01:18:34.042Z,2.5
2016-12-08T01:18:52.665Z,2.5
2016-12-08T01:19:11.292Z,2.5
2016-12-08T01:19:29.914Z,2.4
2016-12-08T01:19:48.535Z,2.4
2016-12-08T01:20:07.153Z,2.4
2016-12-08T01:20:25.783Z,2.4
2016-12-08T01:20:44.407Z,2.3
2016-12-08T01:21:03.055Z,2.3
2016-12-08T01:21:21.679Z,2.2
2016-12-08T01:21:40.299Z,2.2
2016-12-08T01:21:58.964Z,2.2
2016-12-08T01:22:17.586Z,2.2
2016-12-08T01:22:36.212Z,2.1
2016-12-08T01:22:54.838Z,2.1
2016-12-08T01:23:13.459Z,2.1
2016-12-08T01:23:32.085Z,2
2016-12-08T01:23:50.727Z,2
2016-12-08T01:24:09.352Z,2
2016-12-08T01:24:27.976Z,2
2016-12-08T01:24:46.603Z,2
2016-12-08T01:25:05.225Z,2
2016-12-08T01:25:23.840Z,2
2016-12-08T01:25:42.467Z,1.9
2016-12-08T01:26:01.097Z,1.9
2016-12-08T01:26:19.743Z,1.9
2016-12-08T01:26:38.364Z,1.9
2016-12-08T01:26:56.988Z,1.9
2016-12-08T01:27:15.636Z,1.8
2016-12-08T01:27:34.266Z,1.8
2016-12-08T01:27:52.894Z,1.8
2016-12-08T01:28:11.519Z,1.8
2016-12-08T01:28:30.140Z,1.8
2016-12-08T01:28:48.759Z,1.8
2016-12-08T01:29:07.379Z,1.8
2016-12-08T01:29:26.004Z,1.8
2016-12-08T01:29:44.630Z,1.7
2016-12-08T01:30:03.255Z,1.7
2016-12-08T01:30:21.885Z,1.7
2016-12-08T01:30:40.537Z,1.7
2016-12-08T01:30:59.161Z,1.7
2016-12-08T01:31:17.792Z,1.7
2016-12-08T01:31:36.435Z,1.7
2016-12-08T01:31:55.056Z,1.7
2016-12-08T01:32:13.687Z,1.7
2016-12-08T01:32:32.317Z,1.7
2016-12-08T01:32:50.940Z,1.7
2016-12-08T01:33:09.569Z,1.7
2016-12-08T01:33:28.193Z,1.7
2016-12-08T01:33:46.824Z,1.7
2016-12-08T01:34:05.516Z,1.7
2016-12-08T01:34:24.139Z,1.7
2016-12-08T01:34:42.765Z,1.7
2016-12-08T01:35:01.387Z,1.7
2016-12-08T01:35:20.006Z,1.7
2016-12-08T01:35:38.627Z,1.7
2016-12-08T01:35:57.259Z,1.7
2016-12-08T01:36:15.886Z,1.7
2016-12-08T01:36:34.509Z,1.7
2016-12-08T01:36:53.138Z,1.7
2016-12-08T01:37:11.761Z,1.7
2016-12-08T01:37:30.454Z,1.7
2016-12-08T01:37:49.082Z,1.7
2016-12-08T01:38:07.710Z,1.7
2016-12-08T01:38:26.333Z,1.7
2016-12-08T01:38:44.949Z,1.7
2016-12-08T01:39:03.570Z,1.7
2016-12-08T01:39:22.195Z,1.8
2016-12-08T01:39:40.827Z,1.8
2016-12-08T01:39:59.451Z,1.8
2016-12-08T01:40:18.076Z,1.8
2016-12-08T01:40:36.697Z,1.8
2016-12-08T01:40:55.345Z,1.8
2016-12-08T01:41:13.978Z,1.8
2016-12-08T01:41:32.601Z,1.8
2016-12-08T01:41:51.227Z,1.7
2016-12-08T01:42:09.863Z,1.7
2016-12-08T01:42:28.494Z,1.7
2016-12-08T01:42:47.126Z,1.7
2016-12-08T01:43:05.755Z,1.7
2016-12-08T01:43:24.382Z,1.7
2016-12-08T01:43:43.007Z,1.7
2016-12-08T01:44:01.631Z,1.7
2016-12-08T01:44:20.268Z,1.7
2016-12-08T01:44:38.931Z,1.7
2016-12-08T01:44:57.556Z,1.7
2016-12-08T01:45:16.177Z,1.7
2016-12-08T01:45:34.819Z,1.7
2016-12-08T01:45:53.441Z,1.7
2016-12-08T01:46:12.069Z,1.7
2016-12-08T01:46:30.701Z,1.7
2016-12-08T01:46:49.326Z,1.7
2016-12-08T01:47:07.946Z,1.7
2016-12-08T01:47:26.589Z,1.7
2016-12-08T01:47:45.212Z,1.7
2016-12-08T01:48:03.865Z,1.7
2016-12-08T01:48:22.486Z,1.7
2016-12-08T01:48:41.112Z,1.7
2016-12-08T01:48:59.732Z,1.7
2016-12-08T01:49:18.358Z,1.8
2016-12-08T01:49:36.991Z,1.8
2016-12-08T01:49:55.632Z,1.8
2016-12-08T01:50:14.258Z,1.8
2016-12-08T01:50:32.879Z,1.9
2016-12-08T01:50:51.501Z,1.9
2016-12-08T01:51:10.124Z,1.9
2016-12-08T01:51:28.754Z,2
2016-12-08T01:51:47.377Z,2
2016-12-08T01:52:06.002Z,2
2016-12-08T01:52:24.629Z,2
2016-12-08T01:52:43.272Z,2
2016-12-08T01:53:01.900Z,2
2016-12-08T01:53:20.557Z,1.9
2016-12-08T01:53:39.180Z,1.9
2016-12-08T01:53:57.801Z,1.9
2016-12-08T01:54:16.430Z,1.9
2016-12-08T01:54:35.056Z,1.9
2016-12-08T01:54:53.682Z,1.8
2016-12-08T01:55:12.311Z,1.8
2016-12-08T01:55:30.931Z,1.8
2016-12-08T01:55:49.552Z,1.8
2016-12-08T01:56:08.181Z,1.7
2016-12-08T01:56:26.811Z,1.7
2016-12-08T01:56:45.469Z,1.7
2016-12-08T01:57:04.098Z,1.7
2016-12-08T01:57:22.720Z,1.7
2016-12-08T01:57:41.342Z,1.6
2016-12-08T01:57:59.978Z,1.6
2016-12-08T01:58:18.615Z,1.5
2016-12-08T01:58:37.235Z,1.5
2016-12-08T01:58:55.857Z,1.5
2016-12-08T01:59:14.487Z,1.5
2016-12-08T01:59:33.116Z,1.4
2016-12-08T01:59:51.745Z,1.4
2016-12-08T02:00:10.397Z,1.4
2016-12-08T02:00:29.019Z,1.4
2016-12-08T02:00:47.669Z,1.4
2016-12-08T02:01:06.291Z,1.3
2016-12-08T02:01:24.923Z,1.3
2016-12-08T02:01:43.549Z,1.3
2016-12-08T02:02:02.171Z,1.3
2016-12-08T02:02:20.790Z,1.3
2016-12-08T02:02:39.424Z,1.3
2016-12-08T02:02:58.050Z,1.3
2016-12-08T02:03:16.687Z,1.3
2016-12-08T02:03:35.336Z,1.3
2016-12-08T02:03:53.963Z,1.3
2016-12-08T02:04:12.592Z,1.3
2016-12-08T02:04:31.225Z,1.3
2016-12-08T02:04:49.855Z,1.3
2016-12-08T02:05:08.476Z,1.3
2016-12-08T02:05:27.101Z,1.3
2016-12-08T02:05:45.724Z,1.3
2016-12-08T02:06:04.353Z,1.3
2016-12-08T02:06:22.993Z,1.3
2016-12-08T02:06:41.617Z,1.3
2016-12-08T02:07:00.257Z,1.3
2016-12-08T02:07:18.890Z,1.3
2016-12-08T02:07:37.518Z,1.3
2016-12-08T02:07:56.136Z,1.3
2016-12-08T02:08:14.761Z,1.3
2016-12-08T02:08:33.403Z,1.3
2016-12-08T02:08:52.033Z,1.3
2016-12-08T02:09:10.661Z,1.3
2016-12-08T02:09:29.285Z,1.3
2016-12-08T02:09:47.901Z,1.3
2016-12-08T02:10:06.527Z,1.3
2016-12-08T02:10:25.163Z,1.3
2016-12-08T02:10:43.820Z,1.3
2016-12-08T02:11:02.437Z,1.3
2016-12-08T02:11:21.055Z,1.3
2016-12-08T02:11:39.680Z,1.3
2016-12-08T02:11:58.314Z,1.3
2016-12-08T02:12:16.938Z,1.3
2016-12-08T02:12:35.571Z,1.3
2016-12-08T02:12:54.192Z,1.3
2016-12-08T02:13:12.814Z,1.3
2016-12-08T02:13:31.447Z,1.3
2016-12-08T02:13:50.082Z,1.2
2016-12-08T02:14:08.730Z,1.2
2016-12-08T02:14:27.355Z,1.2
2016-12-08T02:14:45.981Z,1.2
2016-12-08T02:15:04.602Z,1.2
2016-12-08T02:15:23.226Z,1.2
2016-12-08T02:15:41.848Z,1.1
2016-12-08T02:16:00.506Z,1.1
2016-12-08T02:16:19.131Z,1.1
2016-12-08T02:16:37.751Z,1.1
2016-12-08T02:16:56.384Z,1.1
2016-12-08T02:17:15.008Z,1.1
2016-12-08T02:17:33.639Z,1.1
2016-12-08T02:17:52.268Z,1.1
2016-12-08T02:18:10.887Z,1.1
2016-12-08T02:18:29.510Z,1
2016-12-08T02:18:48.138Z,1
2016-12-08T02:19:06.774Z,1
2016-12-08T02:19:25.433Z,1
2016-12-08T02:19:44.055Z,1
2016-12-08T02:20:02.681Z,1
2016-12-08T02:20:21.309Z,1
2016-12-08T02:20:39.940Z,1.1
2016-12-08T02:20:58.564Z,1.1
2016-12-08T02:21:17.184Z,1.1
2016-12-08T02:21:35.804Z,1.1
2016-12-08T02:21:54.436Z,1.1
2016-12-08T02:22:13.072Z,1.1
2016-12-08T02:22:31.697Z,1
2016-12-08T02:22:50.348Z,1
2016-12-08T02:23:08.968Z,1
2016-12-08T02:23:27.585Z,1
2016-12-08T02:23:46.208Z,1
2016-12-08T02:24:04.835Z,1
2016-12-08T02:24:23.475Z,1
2016-12-08T02:24:42.096Z,1
2016-12-08T02:25:00.720Z,1
2016-12-08T02:25:19.354Z,1
2016-12-08T02:25:37.974Z,1
2016-12-08T02:25:56.599Z,1
2016-12-08T02:26:15.252Z,1
2016-12-08T02:26:33.875Z,1
2016-12-08T02:26:52.500Z,0.9
2016-12-08T02:27:11.126Z,0.9
2016-12-08T02:27:29.753Z,0.9
2016-12-08T02:27:48.376Z,0.9
2016-12-08T02:28:07.000Z,1
2016-12-08T02:28:25.621Z,0.9
2016-12-08T02:28:44.250Z,0.9
2016-12-08T02:29:02.878Z,0.9
2016-12-08T02:29:21.507Z,0.9
2016-12-08T02:29:40.178Z,0.9
2016-12-08T02:29:58.801Z,0.9
2016-12-08T02:30:17.436Z,0.9
2016-12-08T02:30:36.068Z,0.9
2016-12-08T02:30:54.692Z,0.8
2016-12-08T02:31:13.326Z,0.8
2016-12-08T02:31:31.946Z,0.9
2016-12-08T02:31:50.566Z,0.9
2016-12-08T02:32:09.194Z,0.8
2016-12-08T02:32:27.823Z,0.9
2016-12-08T02:32:46.455Z,0.8
2016-12-08T02:33:05.086Z,0.9
2016-12-08T02:33:23.728Z,0.9
2016-12-08T02:33:42.365Z,0.9
2016-12-08T02:34:00.991Z,0.9
2016-12-08T02:34:19.623Z,0.9
2016-12-08T02:34:38.241Z,0.8
2016-12-08T02:34:56.873Z,0.9
2016-12-08T02:35:15.527Z,0.9
2016-12-08T02:35:34.156Z,0.9
2016-12-08T02:35:52.781Z,1
2016-12-08T02:36:11.402Z,1
2016-12-08T02:36:30.033Z,1
2016-12-08T02:36:48.701Z,1
2016-12-08T02:37:07.329Z,1
2016-12-08T02:37:25.952Z,1
2016-12-08T02:37:44.576Z,1
2016-12-08T02:38:03.203Z,1
2016-12-08T02:38:21.831Z,0.9
2016-12-08T02:38:40.452Z,0.9
2016-12-08T02:38:59.073Z,0.9
2016-12-08T02:39:17.703Z,0.8
2016-12-08T02:39:36.332Z,0.8
2016-12-08T02:39:54.953Z,0.8
2016-12-08T02:40:13.642Z,0.8
2016-12-08T02:40:32.275Z,0.8
2016-12-08T02:40:50.899Z,0.7
2016-12-08T02:41:09.521Z,0.7
2016-12-08T02:41:28.143Z,0.7
2016-12-08T02:41:46.770Z,0.7
2016-12-08T02:42:05.406Z,0.7
2016-12-08T02:42:24.041Z,0.7
2016-12-08T02:42:42.668Z,0.7
2016-12-08T02:43:01.289Z,0.7
2016-12-08T02:43:19.914Z,0.7
2016-12-08T02:43:38.555Z,0.7
2016-12-08T02:43:57.177Z,0.7
2016-12-08T02:44:15.803Z,0.7
2016-12-08T02:44:34.430Z,0.7
2016-12-08T02:44:53.063Z,0.7
2016-12-08T02:45:11.693Z,0.7
2016-12-08T02:45:30.349Z,0.7
2016-12-08T02:45:48.976Z,0.7
2016-12-08T02:46:07.598Z,0.7
2016-12-08T02:46:26.238Z,0.7
2016-12-08T02:46:44.863Z,0.7
2016-12-08T02:47:03.490Z,0.7
2016-12-08T02:47:22.114Z,0.8
2016-12-08T02:47:40.738Z,0.8
2016-12-08T02:47:59.363Z,0.8
2016-12-08T02:48:17.983Z,0.9
2016-12-08T02:48:36.615Z,0.9
2016-12-08T02:48:55.272Z,0.9
2016-12-08T02:49:13.904Z,0.9
2016-12-08T02:49:32.533Z,0.9
2016-12-08T02:49:51.152Z,1
2016-12-08T02:50:09.777Z,1
2016-12-08T02:50:28.439Z,1
2016-12-08T02:50:47.064Z,1
2016-12-08T02:51:05.684Z,1
2016-12-08T02:51:24.305Z,1
2016-12-08T02:51:42.941Z,1
2016-12-08T02:52:01.571Z,1
2016-12-08T02:52:20.235Z,1
2016-12-08T02:52:38.857Z,1.1
2016-12-08T02:52:57.477Z,1.1
2016-12-08T02:53:16.112Z,1.2
2016-12-08T02:53:34.734Z,1.2
2016-12-08T02:53:53.358Z,1.1
2016-12-08T02:54:11.983Z,1.2
2016-12-08T02:54:30.607Z,1.2
2016-12-08T02:54:49.235Z,1.3
2016-12-08T02:55:07.867Z,1.3
2016-12-08T02:55:26.500Z,1.4
2016-12-08T02:55:45.152Z,1.4
2016-12-08T02:56:03.789Z,1.5
2016-12-08T02:56:22.405Z,1.6
2016-12-08T02:56:41.024Z,1.7
2016-12-08T02:56:59.642Z,1.8
2016-12-08T02:57:18.268Z,1.8
2016-12-08T02:57:36.898Z,2
2016-12-08T02:57:55.520Z,2
2016-12-08T02:58:14.141Z,2.1
2016-12-08T02:58:32.759Z,2.2
2016-12-08T02:58:51.390Z,2.2
2016-12-08T02:59:10.034Z,2.2
2016-12-08T02:59:28.664Z,2.3
2016-12-08T02:59:47.286Z,2.4
2016-12-08T03:00:05.909Z,2.4
2016-12-08T03:00:24.525Z,2.4
2016-12-08T03:00:43.152Z,2.5
2016-12-08T03:01:01.780Z,2.5
2016-12-08T03:01:20.426Z,2.6
2016-12-08T03:01:39.065Z,2.6
2016-12-08T03:01:57.692Z,2.7
2016-12-08T03:02:16.312Z,2.7
2016-12-08T03:02:34.949Z,2.7
2016-12-08T03:02:53.597Z,2.8
2016-12-08T03:03:12.218Z,2.8
2016-12-08T03:03:30.837Z,2.8
2016-12-08T03:03:49.457Z,2.8
2016-12-08T03:04:08.088Z,2.8
2016-12-08T03:04:26.714Z,2.9
2016-12-08T03:04:45.339Z,2.9
2016-12-08T03:05:03.963Z,2.9
2016-12-08T03:05:22.585Z,2.9
2016-12-08T03:05:41.209Z,2.9
2016-12-08T03:05:59.837Z,2.9
2016-12-08T03:06:18.503Z,3
2016-12-08T03:06:37.141Z,3
2016-12-08T03:06:55.766Z,3.1
2016-12-08T03:07:14.389Z,3.1
2016-12-08T03:07:33.018Z,3.1
2016-12-08T03:07:51.648Z,3.2
2016-12-08T03:08:10.285Z,3.2
2016-12-08T03:08:28.911Z,3.3
2016-12-08T03:08:47.532Z,3.3
2016-12-08T03:09:06.152Z,3.3
2016-12-08T03:09:24.781Z,3.3
2016-12-08T03:09:43.408Z,3.3
2016-12-08T03:10:02.035Z,3.3
2016-12-08T03:10:20.657Z,3.2
2016-12-08T03:10:39.278Z,3.2
2016-12-08T03:10:57.912Z,3.2
2016-12-08T03:11:16.539Z,3.1
2016-12-08T03:11:35.195Z,3.1
2016-12-08T03:11:53.841Z,3.1
2016-12-08T03:12:12.459Z,3.1
2016-12-08T03:12:31.089Z,3.1
2016-12-08T03:12:49.716Z,3.1
2016-12-08T03:13:08.349Z,3.2
2016-12-08T03:13:26.971Z,3.2
2016-12-08T03:13:45.591Z,3.2
2016-12-08T03:14:04.219Z,3.2
2016-12-08T03:14:22.849Z,3.3
2016-12-08T03:14:41.479Z,3.3
2016-12-08T03:15:00.137Z,3.3
2016-12-08T03:15:18.762Z,3.3
2016-12-08T03:15:37.384Z,3.4
2016-12-08T03:15:56.015Z,3.4
2016-12-08T03:16:14.639Z,3.4
2016-12-08T03:16:33.260Z,3.3
2016-12-08T03:16:51.894Z,3.3
2016-12-08T03:17:10.539Z,3.2
2016-12-08T03:17:29.161Z,3.2
2016-12-08T03:17:47.778Z,3.1
2016-12-08T03:18:06.406Z,2.9
2016-12-08T03:18:25.065Z,2.9
2016-12-08T03:18:43.690Z,2.7
2016-12-08T03:19:02.318Z,2.7
2016-12-08T03:19:20.947Z,2.6
2016-12-08T03:19:39.569Z,2.5
2016-12-08T03:19:58.190Z,2.4
2016-12-08T03:20:16.814Z,2.4
2016-12-08T03:20:35.439Z,2.3
2016-12-08T03:20:54.057Z,2.2
2016-12-08T03:21:12.680Z,2.2
2016-12-08T03:21:31.304Z,2.2
2016-12-08T03:21:49.954Z,2.1
2016-12-08T03:22:08.576Z,2.1
2016-12-08T03:22:27.208Z,2
2016-12-08T03:22:45.834Z,2
2016-12-08T03:23:04.456Z,1.9
2016-12-08T03:23:23.080Z,1.9
2016-12-08T03:23:41.703Z,1.8
2016-12-08T03:24:00.346Z,1.8
2016-12-08T03:24:18.966Z,1.7
2016-12-08T03:24:37.599Z,1.7
2016-12-08T03:24:56.232Z,1.6
2016-12-08T03:25:14.870Z,1.6
2016-12-08T03:25:33.508Z,1.5
2016-12-08T03:25:52.137Z,1.5
2016-12-08T03:26:10.762Z,1.5
2016-12-08T03:26:29.390Z,1.5
2016-12-08T03:26:48.015Z,1.4
2016-12-08T03:27:06.638Z,1.4
2016-12-08T03:27:25.259Z,1.4
2016-12-08T03:27:43.889Z,1.3
2016-12-08T03:28:02.517Z,1.3
2016-12-08T03:28:21.141Z,1.3
2016-12-08T03:28:39.768Z,1.3
2016-12-08T03:28:58.422Z,1.3
2016-12-08T03:29:17.040Z,1.3
2016-12-08T03:29:35.672Z,1.3
2016-12-08T03:29:54.295Z,1.3
2016-12-08T03:30:12.924Z,1.3
2016-12-08T03:30:31.554Z,1.3
2016-12-08T03:30:50.183Z,1.4
2016-12-08T03:31:08.808Z,1.4
2016-12-08T03:31:27.432Z,1.4
2016-12-08T03:31:46.057Z,1.5
2016-12-08T03:32:04.688Z,1.6
2016-12-08T03:32:23.312Z,1.6
2016-12-08T03:32:41.932Z,1.7
2016-12-08T03:33:00.573Z,1.7
2016-12-08T03:33:19.198Z,1.8
2016-12-08T03:33:37.822Z,2
2016-12-08T03:33:56.454Z,2.1
2016-12-08T03:34:15.103Z,2.2
2016-12-08T03:34:33.726Z,2.3
2016-12-08T03:34:52.356Z,2.3
2016-12-08T03:35:10.984Z,2.3
2016-12-08T03:35:29.616Z,2.4
2016-12-08T03:35:48.240Z,2.4
2016-12-08T03:36:06.859Z,2.4
2016-12-08T03:36:25.493Z,2.4
2016-12-08T03:36:44.120Z,2.4
2016-12-08T03:37:02.747Z,2.5
2016-12-08T03:37:21.376Z,2.5
2016-12-08T03:37:40.026Z,2.4
2016-12-08T03:37:58.650Z,2.4
2016-12-08T03:38:17.298Z,2.3
2016-12-08T03:38:35.931Z,2.3
2016-12-08T03:38:54.551Z,2.3
2016-12-08T03:39:13.174Z,2.3
2016-12-08T03:39:31.800Z,2.3
2016-12-08T03:39:50.425Z,2.4
2016-12-08T03:40:09.049Z,2.5
2016-12-08T03:40:27.675Z,2.5
2016-12-08T03:40:46.298Z,2.6
2016-12-08T03:41:04.942Z,2.6
2016-12-08T03:41:23.567Z,2.6
2016-12-08T03:41:42.197Z,2.7
2016-12-08T03:42:00.824Z,2.7
2016-12-08T03:42:19.449Z,2.7
2016-12-08T03:42:38.077Z,2.7
2016-12-08T03:42:56.703Z,2.8
2016-12-08T03:43:15.334Z,2.8
2016-12-08T03:43:33.966Z,2.8
2016-12-08T03:43:52.594Z,2.8
2016-12-08T03:44:11.242Z,2.8
2016-12-08T03:44:29.902Z,2.9
2016-12-08T03:44:48.569Z,2.9
2016-12-08T03:45:07.194Z,3
2016-12-08T03:45:25.814Z,3
2016-12-08T03:45:44.432Z,3
2016-12-08T03:46:03.060Z,3
2016-12-08T03:46:21.690Z,3
2016-12-08T03:46:40.319Z,3
2016-12-08T03:46:58.943Z,3.1
2016-12-08T03:47:17.583Z,3.1
2016-12-08T03:47:36.209Z,3.1
2016-12-08T03:47:54.862Z,3.1
2016-12-08T03:48:13.491Z,3.1
2016-12-08T03:48:32.115Z,3.1
2016-12-08T03:48:50.740Z,3.1
2016-12-08T03:49:09.363Z,3.1
2016-12-08T03:49:27.993Z,3.2
2016-12-08T03:49:46.623Z,3.2
2016-12-08T03:50:05.251Z,3.2
2016-12-08T03:50:23.877Z,3.1
2016-12-08T03:50:42.497Z,3.2
2016-12-08T03:51:01.125Z,3.2
2016-12-08T03:51:19.766Z,3.2
2016-12-08T03:51:38.401Z,3.3
2016-12-08T03:51:57.025Z,3.3
2016-12-08T03:52:15.647Z,3.3
2016-12-08T03:52:34.265Z,3.3
2016-12-08T03:52:52.883Z,3.3
2016-12-08T03:53:11.508Z,3.3
2016-12-08T03:53:30.135Z,3.2
2016-12-08T03:53:48.760Z,3.2
2016-12-08T03:54:07.397Z,3.1
2016-12-08T03:54:26.017Z,3.1
2016-12-08T03:54:44.639Z,3
2016-12-08T03:55:03.291Z,3
2016-12-08T03:55:21.912Z,3
2016-12-08T03:55:40.544Z,3
2016-12-08T03:55:59.165Z,2.9
2016-12-08T03:56:17.786Z,2.9
2016-12-08T03:56:36.413Z,2.9
2016-12-08T03:56:55.057Z,2.9
2016-12-08T03:57:13.681Z,2.9
2016-12-08T03:57:32.305Z,2.8
2016-12-08T03:57:50.930Z,2.8
2016-12-08T03:58:09.564Z,2.8
2016-12-08T03:58:28.195Z,2.7
2016-12-08T03:58:46.845Z,2.7
2016-12-08T03:59:05.469Z,2.7
2016-12-08T03:59:24.099Z,2.9
2016-12-08T03:59:42.729Z,3
2016-12-08T04:00:01.353Z,3
2016-12-08T04:00:20.008Z,3
2016-12-08T04:00:38.636Z,3
2016-12-08T04:00:57.255Z,3
2016-12-08T04:01:15.874Z,3
2016-12-08T04:01:34.502Z,3
2016-12-08T04:01:53.137Z,3
2016-12-08T04:02:11.759Z,2.9
2016-12-08T04:02:30.406Z,2.9
2016-12-08T04:02:49.025Z,2.8
2016-12-08T04:03:07.656Z,2.7
2016-12-08T04:03:26.279Z,2.7
2016-12-08T04:03:44.936Z,2.7
2016-12-08T04:04:03.565Z,2.6
2016-12-08T04:04:22.187Z,2.6
2016-12-08T04:04:40.819Z,2.6
2016-12-08T04:04:59.445Z,2.5
2016-12-08T04:05:18.070Z,2.5
2016-12-08T04:05:36.702Z,2.6
2016-12-08T04:05:55.333Z,2.7
2016-12-08T04:06:13.951Z,2.8
2016-12-08T04:06:32.569Z,2.9
2016-12-08T04:06:51.197Z,3
2016-12-08T04:07:09.854Z,3
2016-12-08T04:07:28.477Z,3
2016-12-08T04:07:47.101Z,3
2016-12-08T04:08:05.721Z,3
2016-12-08T04:08:24.343Z,3
2016-12-08T04:08:42.970Z,3
2016-12-08T04:09:01.595Z,2.9
2016-12-08T04:09:20.223Z,3
2016-12-08T04:09:38.848Z,3
2016-12-08T04:09:57.481Z,3
2016-12-08T04:10:16.103Z,3
2016-12-08T04:10:34.752Z,3
2016-12-08T04:10:53.377Z,3.1
2016-12-08T04:11:11.997Z,3.1
2016-12-08T04:11:30.623Z,3.2
2016-12-08T04:11:49.252Z,3.2
2016-12-08T04:12:07.879Z,3.3
2016-12-08T04:12:26.502Z,3.3
2016-12-08T04:12:45.125Z,3.4
2016-12-08T04:13:03.754Z,3.4
2016-12-08T04:13:22.378Z,3.5
2016-12-08T04:13:41.006Z,3.5
2016-12-08T04:13:59.643Z,3.5
2016-12-08T04:14:18.290Z,3.6
2016-12-08T04:14:36.917Z,3.6
2016-12-08T04:14:55.538Z,3.6
2016-12-08T04:15:14.166Z,3.6
2016-12-08T04:15:32.787Z,3.6
2016-12-08T04:15:51.414Z,3.6
2016-12-08T04:16:10.054Z,3.6
2016-12-08T04:16:28.680Z,3.6
2016-12-08T04:16:47.307Z,3.6
2016-12-08T04:17:05.941Z,3.6
2016-12-08T04:17:24.572Z,3.6
2016-12-08T04:17:43.249Z,3.6
2016-12-08T04:18:01.873Z,3.6
2016-12-08T04:18:20.493Z,3.6
2016-12-08T04:18:39.118Z,3.7